Time,TemperatureF,DewpointF,PressureIn,WindDirection,WindDirectionDegrees,WindSpeedMPH,WindSpeedGustMPH,Humidity,HourlyPrecipIn,Conditions,Clouds,dailyrainin,SoftwareType,DateUTC
2013-05-20 00:00:00,69.2,69.2,28.64,South,188,4.0,15.0,100,0.00,,CLR,0.00,VWS V14.01,2013-05-20 05:00:00,
2013-05-20 00:01:00,69.1,69.1,28.64,South,186,5.0,9.0,100,0.00,,CLR,0.00,VWS V14.01,2013-05-20 05:01:00,
2013-05-20 00:06:00,69.0,69.0,28.64,SSE,148,10.0,17.0,100,0.00,,CLR,0.00,VWS V14.01,2013-05-20 05:06:00,
2013-05-20 00:10:00,69.0,69.0,28.65,South,191,6.0,17.0,100,0.00,,CLR,0.00,VWS V14.01,2013-05-20 05:10:00,
2013-05-20 00:11:00,68.9,68.9,28.65,SE,141,6.0,9.0,100,0.00,,CLR,0.00,VWS V14.01,2013-05-20 05:11:00,
2013-05-20 00:16:00,68.8,68.8,28.65,South,175,7.0,22.0,100,0.00,,CLR,0.00,VWS V14.01,2013-05-20 05:16:00,
2013-05-20 00:20:00,68.8,68.8,28.65,SE,143,5.0,22.0,100,0.00,,CLR,0.00,VWS V14.01,2013-05-20 05:20:00,
2013-05-20 00:21:00,68.8,68.8,28.65,ESE,119,8.0,11.0,100,0.00,,CLR,0.00,VWS V14.01,2013-05-20 05:21:00,
2013-05-20 00:26:00,68.8,68.8,28.64,South,172,8.0,11.0,100,0.00,,CLR,0.00,VWS V14.01,2013-05-20 05:26:00,
2013-05-20 00:30:00,68.8,68.8,28.65,South,190,0.0,12.0,100,0.00,,CLR,0.00,VWS V14.01,2013-05-20 05:30:00,
2013-05-20 00:31:00,68.8,68.8,28.65,SE,140,5.0,13.0,100,0.00,,CLR,0.00,VWS V14.01,2013-05-20 05:31:00,
2013-05-20 00:36:00,68.8,68.8,28.65,South,173,3.0,13.0,100,0.00,,CLR,0.00,VWS V14.01,2013-05-20 05:36:00,
2013-05-20 00:40:00,68.8,68.8,28.66,SSE,151,3.0,13.0,100,0.00,,CLR,0.00,VWS V14.01,2013-05-20 05:40:00,
2013-05-20 00:41:00,68.8,68.8,28.66,SSW,205,2.0,9.0,100,0.00,,CLR,0.00,VWS V14.01,2013-05-20 05:41:00,
2013-05-20 00:46:00,68.8,68.8,28.67,SSE,153,0.0,9.0,100,0.00,,CLR,0.00,VWS V14.01,2013-05-20 05:46:00,
2013-05-20 00:50:00,68.8,68.8,28.67,SSE,166,4.0,9.0,100,0.00,,CLR,0.00,VWS V14.01,2013-05-20 05:50:00,
2013-05-20 00:51:00,68.7,68.7,28.67,SE,145,3.0,6.0,100,0.00,,CLR,0.00,VWS V14.01,2013-05-20 05:51:00,
2013-05-20 00:56:00,68.7,68.7,28.70,SW,220,7.0,12.0,100,0.00,,CLR,0.00,VWS V14.01,2013-05-20 05:56:00,
2013-05-20 01:00:00,68.7,68.7,28.74,South,180,5.0,20.0,100,0.03,,CLR,0.03,VWS V14.01,2013-05-20 06:00:00,
2013-05-20 01:10:00,67.0,65.2,28.74,SSW,202,12.0,31.0,94,0.24,,CLR,0.24,VWS V14.01,2013-05-20 06:10:00,
2013-05-20 01:20:00,64.8,57.4,28.72,South,180,5.0,17.0,77,0.35,,CLR,0.35,VWS V14.01,2013-05-20 06:20:00,
2013-05-20 01:30:00,64.2,40.0,28.72,South,180,4.0,13.0,41,0.39,,CLR,0.39,VWS V14.01,2013-05-20 06:30:00,
2013-05-20 01:40:00,63.9,63.9,28.70,SSE,158,2.0,8.0,100,0.40,,CLR,0.40,VWS V14.01,2013-05-20 06:40:00,
2013-05-20 01:50:00,63.8,62.6,28.69,SSE,158,1.0,5.0,96,0.41,,CLR,0.41,VWS V14.01,2013-05-20 06:50:00,
2013-05-20 02:00:00,63.7,63.7,28.68,SE,135,2.0,8.0,100,0.41,,CLR,0.41,VWS V14.01,2013-05-20 07:00:00,
2013-05-20 02:10:00,63.6,63.6,28.69,ESE,112,2.0,9.0,100,0.38,,CLR,0.41,VWS V14.01,2013-05-20 07:10:00,
2013-05-20 02:20:00,63.5,63.5,28.68,SE,135,3.0,9.0,100,0.17,,CLR,0.41,VWS V14.01,2013-05-20 07:20:00,
2013-05-20 02:30:00,63.4,63.4,28.67,ESE,112,2.0,9.0,100,0.06,,CLR,0.41,VWS V14.01,2013-05-20 07:30:00,
2013-05-20 02:40:00,63.3,63.3,28.67,SE,135,2.0,8.0,100,0.02,,CLR,0.41,VWS V14.01,2013-05-20 07:40:00,
2013-05-20 02:50:00,63.3,63.3,28.66,SSE,158,1.0,5.0,100,0.01,,CLR,0.41,VWS V14.01,2013-05-20 07:50:00,
2013-05-20 03:00:00,63.1,63.1,28.65,SSE,158,1.0,6.0,100,0.00,,CLR,0.41,VWS V14.01,2013-05-20 08:00:00,
2013-05-20 03:10:00,63.0,63.0,28.66,South,180,1.0,7.0,100,0.00,,CLR,0.41,VWS V14.01,2013-05-20 08:10:00,
2013-05-20 03:20:00,62.9,62.9,28.67,SSE,158,2.0,7.0,100,0.00,,CLR,0.41,VWS V14.01,2013-05-20 08:20:00,
2013-05-20 03:30:00,62.7,62.7,28.66,SSE,158,3.0,9.0,100,0.00,,CLR,0.41,VWS V14.01,2013-05-20 08:30:00,
2013-05-20 03:40:00,62.6,62.6,28.64,SSE,158,2.0,6.0,100,0.00,,CLR,0.41,VWS V14.01,2013-05-20 08:40:00,
2013-05-20 03:50:00,62.5,62.5,28.65,SE,135,2.0,5.0,100,0.00,,CLR,0.41,VWS V14.01,2013-05-20 08:50:00,
2013-05-20 04:00:00,62.4,62.4,28.67,SSE,158,3.0,8.0,100,0.00,,CLR,0.41,VWS V14.01,2013-05-20 09:00:00,
2013-05-20 04:10:00,62.3,62.3,28.65,SSE,158,2.0,9.0,100,0.00,,CLR,0.41,VWS V14.01,2013-05-20 09:10:00,
2013-05-20 04:20:00,62.2,62.2,28.65,SSE,158,3.0,10.0,100,0.00,,CLR,0.41,VWS V14.01,2013-05-20 09:20:00,
2013-05-20 04:30:00,62.1,62.1,28.63,SSE,158,4.0,11.0,100,0.00,,CLR,0.41,VWS V14.01,2013-05-20 09:30:00,
2013-05-20 04:40:00,62.1,62.1,28.61,SE,135,4.0,11.0,100,0.00,,CLR,0.41,VWS V14.01,2013-05-20 09:40:00,
2013-05-20 04:50:00,62.1,62.1,28.61,SSE,158,3.0,10.0,100,0.00,,CLR,0.41,VWS V14.01,2013-05-20 09:50:00,
2013-05-20 05:00:00,62.1,62.1,28.61,SE,135,4.0,14.0,100,0.00,,CLR,0.41,VWS V14.01,2013-05-20 10:00:00,
2013-05-20 05:10:00,62.0,62.0,28.62,South,180,5.0,12.0,100,0.00,,CLR,0.41,VWS V14.01,2013-05-20 10:10:00,
2013-05-20 05:20:00,61.9,61.9,28.62,SSE,158,4.0,9.0,100,0.00,,CLR,0.41,VWS V14.01,2013-05-20 10:20:00,
2013-05-20 05:30:00,61.8,61.8,28.62,SSE,158,3.0,10.0,100,0.00,,CLR,0.41,VWS V14.01,2013-05-20 10:30:00,
2013-05-20 05:40:00,61.7,61.7,28.61,SSE,158,3.0,12.0,100,0.00,,CLR,0.41,VWS V14.01,2013-05-20 10:40:00,
2013-05-20 05:50:00,61.7,61.7,28.60,SSE,158,5.0,12.0,100,0.00,,CLR,0.41,VWS V14.01,2013-05-20 10:50:00,
2013-05-20 06:00:00,61.6,61.6,28.61,SSE,158,3.0,9.0,100,0.00,,CLR,0.41,VWS V14.01,2013-05-20 11:00:00,
2013-05-20 06:10:00,61.5,61.5,28.63,SSE,158,5.0,11.0,100,0.00,,CLR,0.41,VWS V14.01,2013-05-20 11:10:00,
2013-05-20 06:20:00,61.5,61.5,28.65,South,180,4.0,14.0,100,0.00,,CLR,0.41,VWS V14.01,2013-05-20 11:20:00,
2013-05-20 06:30:00,61.6,61.6,28.66,SSE,158,5.0,12.0,100,0.00,,CLR,0.41,VWS V14.01,2013-05-20 11:30:00,
2013-05-20 06:40:00,61.8,61.8,28.66,SSE,158,5.0,14.0,100,0.00,,CLR,0.41,VWS V14.01,2013-05-20 11:40:00,
2013-05-20 06:50:00,62.1,62.1,28.66,SSE,158,6.0,14.0,100,0.00,,CLR,0.41,VWS V14.01,2013-05-20 11:50:00,
2013-05-20 07:00:00,62.3,62.3,28.66,SSE,158,5.0,16.0,100,0.00,,CLR,0.41,VWS V14.01,2013-05-20 12:00:00,
2013-05-20 07:10:00,62.5,62.5,28.66,South,180,7.0,21.0,100,0.00,,CLR,0.41,VWS V14.01,2013-05-20 12:10:00,
2013-05-20 07:20:00,62.6,62.6,28.65,SSE,158,6.0,19.0,100,0.00,,CLR,0.41,VWS V14.01,2013-05-20 12:20:00,
2013-05-20 07:30:00,62.8,62.8,28.65,SSE,158,7.0,19.0,100,0.00,,CLR,0.41,VWS V14.01,2013-05-20 12:30:00,
2013-05-20 07:40:00,62.9,62.9,28.64,SSE,158,5.0,18.0,100,0.00,,CLR,0.41,VWS V14.01,2013-05-20 12:40:00,
2013-05-20 07:50:00,62.9,62.9,28.64,SSE,158,6.0,13.0,100,0.00,,CLR,0.41,VWS V14.01,2013-05-20 12:50:00,
2013-05-20 08:00:00,63.0,63.0,28.64,SSE,158,5.0,15.0,100,0.00,,CLR,0.41,VWS V14.01,2013-05-20 13:00:00,
2013-05-20 08:10:00,63.3,63.3,28.63,SSE,158,5.0,13.0,100,0.00,,CLR,0.41,VWS V14.01,2013-05-20 13:10:00,
2013-05-20 08:20:00,63.6,63.6,28.64,SSE,158,4.0,14.0,100,0.00,,CLR,0.41,VWS V14.01,2013-05-20 13:20:00,
2013-05-20 08:30:00,64.1,52.5,28.65,SSE,158,3.0,14.0,66,0.00,,CLR,0.41,VWS V14.01,2013-05-20 13:30:00,
2013-05-20 08:40:00,64.8,64.8,28.65,SSE,158,4.0,16.0,100,0.00,,CLR,0.41,VWS V14.01,2013-05-20 13:40:00,
2013-05-20 08:50:00,65.6,57.1,28.65,SSE,158,6.0,22.0,74,0.00,,CLR,0.41,VWS V14.01,2013-05-20 13:50:00,
2013-05-20 09:00:00,66.2,66.2,28.65,South,180,5.0,16.0,100,0.00,,CLR,0.41,VWS V14.01,2013-05-20 14:00:00,
2013-05-20 09:10:00,66.7,47.5,28.65,South,180,7.0,19.0,50,0.00,,CLR,0.41,VWS V14.01,2013-05-20 14:10:00,
2013-05-20 09:20:00,67.0,67.0,28.66,South,180,7.0,21.0,100,0.00,,CLR,0.41,VWS V14.01,2013-05-20 14:20:00,
2013-05-20 09:30:00,67.3,61.6,28.66,South,180,6.0,17.0,82,0.01,,CLR,0.42,VWS V14.01,2013-05-20 14:30:00,
2013-05-20 09:40:00,67.8,67.8,28.66,South,180,4.0,12.0,100,0.01,,CLR,0.42,VWS V14.01,2013-05-20 14:40:00,
2013-05-20 09:50:00,68.4,61.3,28.66,South,180,6.0,15.0,78,0.01,,CLR,0.42,VWS V14.01,2013-05-20 14:50:00,
2013-05-20 10:00:00,68.8,68.8,28.67,South,180,5.0,18.0,100,0.01,,CLR,0.42,VWS V14.01,2013-05-20 15:00:00,
2013-05-20 10:10:00,69.4,39.8,28.67,South,180,5.0,16.0,34,0.01,,CLR,0.42,VWS V14.01,2013-05-20 15:10:00,
2013-05-20 10:20:00,69.9,69.9,28.67,SSW,202,5.0,14.0,100,0.01,,CLR,0.42,VWS V14.01,2013-05-20 15:20:00,
2013-05-20 10:30:00,70.3,29.7,28.67,SSW,202,6.0,16.0,22,0.01,,CLR,0.42,VWS V14.01,2013-05-20 15:30:00,
2013-05-20 10:40:00,70.1,70.1,28.66,SSE,158,4.0,14.0,100,0.00,,CLR,0.42,VWS V14.01,2013-05-20 15:40:00,
2013-05-20 10:50:00,70.4,29.8,28.66,South,180,4.0,13.0,22,0.00,,CLR,0.42,VWS V14.01,2013-05-20 15:50:00,
2013-05-20 11:00:00,70.9,70.9,28.66,South,180,3.0,11.0,100,0.00,,CLR,0.42,VWS V14.01,2013-05-20 16:00:00,
2013-05-20 11:10:00,71.6,71.6,28.66,SSE,158,4.0,11.0,100,0.00,,CLR,0.42,VWS V14.01,2013-05-20 16:10:00,
2013-05-20 11:20:00,72.2,72.2,28.66,South,180,5.0,14.0,100,0.00,,CLR,0.42,VWS V14.01,2013-05-20 16:20:00,
2013-05-20 11:30:00,72.7,72.7,28.66,South,180,4.0,16.0,100,0.00,,CLR,0.42,VWS V14.01,2013-05-20 16:30:00,
2013-05-20 11:40:00,73.1,73.1,28.67,SSE,158,2.0,7.0,100,0.00,,CLR,0.42,VWS V14.01,2013-05-20 16:40:00,
2013-05-20 11:50:00,73.2,73.2,28.67,South,180,3.0,12.0,100,0.00,,CLR,0.42,VWS V14.01,2013-05-20 16:50:00,
2013-05-20 12:00:00,73.3,73.3,28.67,SSE,158,6.0,16.0,100,0.00,,CLR,0.42,VWS V14.01,2013-05-20 17:00:00,
2013-05-20 12:10:00,73.9,73.9,28.68,South,180,4.0,13.0,100,0.00,,CLR,0.42,VWS V14.01,2013-05-20 17:10:00,
2013-05-20 12:20:00,74.5,74.5,28.68,SSE,158,5.0,19.0,100,0.00,,CLR,0.42,VWS V14.01,2013-05-20 17:20:00,
2013-05-20 12:30:00,75.0,75.0,28.68,South,180,5.0,13.0,100,0.00,,CLR,0.42,VWS V14.01,2013-05-20 17:30:00,
2013-05-20 12:40:00,75.5,75.5,28.68,South,180,6.0,16.0,100,0.00,,CLR,0.42,VWS V14.01,2013-05-20 17:40:00,
2013-05-20 12:50:00,76.0,76.0,28.67,South,180,4.0,12.0,100,0.00,,CLR,0.42,VWS V14.01,2013-05-20 17:50:00,
2013-05-20 13:00:00,76.6,76.6,28.67,South,180,4.0,16.0,100,0.00,,CLR,0.42,VWS V14.01,2013-05-20 18:00:00,
2013-05-20 13:10:00,77.0,77.0,28.67,SSE,158,7.0,20.0,100,0.00,,CLR,0.42,VWS V14.01,2013-05-20 18:10:00,
2013-05-20 13:20:00,77.4,77.4,28.67,SSE,158,6.0,15.0,100,0.00,,CLR,0.42,VWS V14.01,2013-05-20 18:20:00,
2013-05-20 13:30:00,77.7,77.7,28.67,South,180,5.0,16.0,100,0.00,,CLR,0.42,VWS V14.01,2013-05-20 18:30:00,
2013-05-20 13:40:00,78.2,78.2,28.67,South,180,8.0,24.0,100,0.00,,CLR,0.42,VWS V14.01,2013-05-20 18:40:00,
2013-05-20 13:50:00,78.3,78.3,28.67,South,180,7.0,20.0,100,0.00,,CLR,0.42,VWS V14.01,2013-05-20 18:50:00,
2013-05-20 14:00:00,78.5,78.5,28.67,South,180,6.0,18.0,100,0.00,,CLR,0.42,VWS V14.01,2013-05-20 19:00:00,
2013-05-20 14:10:00,79.1,79.1,28.67,SSW,202,4.0,13.0,100,0.00,,CLR,0.42,VWS V14.01,2013-05-20 19:10:00,
2013-05-20 14:20:00,79.6,79.6,28.67,South,180,6.0,24.0,100,0.00,,CLR,0.42,VWS V14.01,2013-05-20 19:20:00,
2013-05-20 14:30:00,79.7,79.7,28.67,SSW,202,6.0,17.0,100,0.00,,CLR,0.42,VWS V14.01,2013-05-20 19:30:00,
2013-05-20 14:40:00,79.9,79.9,28.67,South,180,6.0,17.0,100,0.00,,CLR,0.42,VWS V14.01,2013-05-20 19:40:00,
2013-05-20 14:50:00,80.1,80.1,28.67,SSW,202,6.0,16.0,100,0.00,,CLR,0.42,VWS V14.01,2013-05-20 19:50:00,
2013-05-20 15:00:00,80.4,80.4,28.67,South,180,5.0,16.0,100,0.00,,CLR,0.42,VWS V14.01,2013-05-20 20:00:00,
2013-05-20 15:10:00,80.5,80.5,28.67,SSE,158,6.0,20.0,100,0.00,,CLR,0.42,VWS V14.01,2013-05-20 20:10:00,
2013-05-20 15:20:00,80.7,80.7,28.66,SSE,158,5.0,16.0,100,0.00,,CLR,0.42,VWS V14.01,2013-05-20 20:20:00,
2013-05-20 15:30:00,81.0,81.0,28.66,SSE,158,7.0,16.0,100,0.00,,CLR,0.42,VWS V14.01,2013-05-20 20:30:00,
2013-05-20 15:40:00,81.3,81.3,28.66,South,180,4.0,15.0,100,0.00,,CLR,0.42,VWS V14.01,2013-05-20 20:40:00,
2013-05-20 15:50:00,81.7,81.7,28.66,South,180,6.0,21.0,100,0.00,,CLR,0.42,VWS V14.01,2013-05-20 20:50:00,
2013-05-20 16:00:00,81.8,81.8,28.66,SSE,158,8.0,24.0,100,0.00,,CLR,0.42,VWS V14.01,2013-05-20 21:00:00,
2013-05-20 16:10:00,81.9,81.9,28.65,South,180,9.0,29.0,100,0.00,,CLR,0.42,VWS V14.01,2013-05-20 21:10:00,
2013-05-20 16:20:00,81.7,81.7,28.65,South,180,8.0,21.0,100,0.00,,CLR,0.42,VWS V14.01,2013-05-20 21:20:00,
2013-05-20 16:30:00,81.7,81.7,28.65,South,180,7.0,23.0,100,0.00,,CLR,0.42,VWS V14.01,2013-05-20 21:30:00,
2013-05-20 16:40:00,81.9,81.9,28.65,South,180,6.0,21.0,100,0.00,,CLR,0.42,VWS V14.01,2013-05-20 21:40:00,
2013-05-20 16:50:00,82.0,82.0,28.64,SSW,202,4.0,17.0,100,0.00,,CLR,0.42,VWS V14.01,2013-05-20 21:50:00,
2013-05-20 17:00:00,82.3,82.3,28.64,South,180,5.0,15.0,100,0.00,,CLR,0.42,VWS V14.01,2013-05-20 22:00:00,
2013-05-20 17:10:00,82.2,82.2,28.64,South,180,4.0,14.0,100,0.00,,CLR,0.42,VWS V14.01,2013-05-20 22:10:00,
2013-05-20 17:20:00,82.4,82.4,28.64,South,180,5.0,16.0,100,0.00,,CLR,0.42,VWS V14.01,2013-05-20 22:20:00,
2013-05-20 17:30:00,82.5,82.5,28.64,South,180,4.0,14.0,100,0.00,,CLR,0.42,VWS V14.01,2013-05-20 22:30:00,
2013-05-20 17:40:00,82.3,82.3,28.64,SSW,202,5.0,15.0,100,0.00,,CLR,0.42,VWS V14.01,2013-05-20 22:40:00,
2013-05-20 17:50:00,82.3,82.3,28.63,South,180,5.0,17.0,100,0.00,,CLR,0.42,VWS V14.01,2013-05-20 22:50:00,
2013-05-20 18:00:00,82.4,82.4,28.63,South,180,4.0,10.0,100,0.00,,CLR,0.42,VWS V14.01,2013-05-20 23:00:00,
2013-05-20 18:10:00,82.5,82.5,28.63,South,180,4.0,14.0,100,0.00,,CLR,0.42,VWS V14.01,2013-05-20 23:10:00,
2013-05-20 18:20:00,82.0,82.0,28.63,South,180,6.0,17.0,100,0.00,,CLR,0.42,VWS V14.01,2013-05-20 23:20:00,
2013-05-20 18:30:00,81.1,81.1,28.63,SSW,202,6.0,16.0,100,0.00,,CLR,0.42,VWS V14.01,2013-05-20 23:30:00,
2013-05-20 18:40:00,80.4,80.4,28.63,South,180,4.0,12.0,100,0.00,,CLR,0.42,VWS V14.01,2013-05-20 23:40:00,
2013-05-20 18:50:00,79.7,79.7,28.63,SSE,158,3.0,13.0,100,0.00,,CLR,0.42,VWS V14.01,2013-05-20 23:50:00,
2013-05-20 19:00:00,79.2,79.2,28.63,SSE,158,3.0,11.0,100,0.00,,CLR,0.42,VWS V14.01,2013-05-21 00:00:00,
2013-05-20 19:10:00,78.5,78.5,28.63,South,180,4.0,14.0,100,0.00,,CLR,0.42,VWS V14.01,2013-05-21 00:10:00,
2013-05-20 19:20:00,77.9,77.9,28.63,South,180,3.0,13.0,100,0.00,,CLR,0.42,VWS V14.01,2013-05-21 00:20:00,
2013-05-20 19:30:00,77.3,77.3,28.63,South,180,4.0,13.0,100,0.00,,CLR,0.42,VWS V14.01,2013-05-21 00:30:00,
2013-05-20 19:45:00,76.7,76.7,28.64,SSE,158,3.0,12.0,100,0.00,,CLR,0.42,VWS V14.01,2013-05-21 00:45:00,
2013-05-20 19:50:00,75.8,75.8,28.64,SSE,151,2.0,7.0,100,0.00,,CLR,0.40,VWS V14.01,2013-05-21 00:50:00,
2013-05-20 19:55:00,75.6,75.6,28.64,SE,145,3.0,9.0,100,0.00,,CLR,0.40,VWS V14.01,2013-05-21 00:55:00,
2013-05-20 20:00:00,75.3,75.3,28.63,SSE,147,2.0,9.0,100,0.00,,CLR,0.40,VWS V14.01,2013-05-21 01:00:00,
2013-05-20 20:05:00,75.0,75.0,28.63,SSE,160,5.0,13.0,100,0.00,,CLR,0.40,VWS V14.01,2013-05-21 01:05:00,
2013-05-20 20:10:00,74.7,74.7,28.62,SSE,162,2.0,13.0,100,0.00,,CLR,0.40,VWS V14.01,2013-05-21 01:10:00,
2013-05-20 20:15:00,74.4,74.4,28.62,SSE,158,1.0,8.0,100,0.00,,CLR,0.40,VWS V14.01,2013-05-21 01:15:00,
2013-05-20 20:20:00,74.1,74.1,28.62,SSE,164,8.0,9.0,100,0.00,,CLR,0.40,VWS V14.01,2013-05-21 01:20:00,
2013-05-20 20:25:00,73.9,73.9,28.62,South,188,1.0,7.0,100,0.00,,CLR,0.40,VWS V14.01,2013-05-21 01:25:00,
2013-05-20 20:30:00,73.6,73.6,28.62,SSE,168,0.0,7.0,100,0.00,,CLR,0.40,VWS V14.01,2013-05-21 01:30:00,
2013-05-20 20:35:00,73.3,73.3,28.62,SSE,166,0.0,5.0,100,0.00,,CLR,0.40,VWS V14.01,2013-05-21 01:35:00,
2013-05-20 20:40:00,73.1,73.1,28.62,South,188,0.0,8.0,100,0.00,,CLR,0.40,VWS V14.01,2013-05-21 01:40:00,
2013-05-20 20:45:00,72.9,72.9,28.62,SSE,152,1.0,9.0,100,0.00,,CLR,0.40,VWS V14.01,2013-05-21 01:45:00,
2013-05-20 20:50:00,72.6,72.6,28.62,South,170,2.0,9.0,100,0.00,,CLR,0.40,VWS V14.01,2013-05-21 01:50:00,
2013-05-20 20:55:00,72.4,72.4,28.61,SSE,149,4.0,6.0,100,0.00,,CLR,0.40,VWS V14.01,2013-05-21 01:55:00,
2013-05-20 21:00:00,72.3,72.3,28.61,SSE,163,0.0,6.0,100,0.00,,CLR,0.40,VWS V14.01,2013-05-21 02:00:00,
2013-05-20 21:05:00,72.1,72.1,28.62,SSE,161,0.0,5.0,100,0.00,,CLR,0.40,VWS V14.01,2013-05-21 02:05:00,
2013-05-20 21:10:00,71.9,71.9,28.63,South,176,1.0,5.0,100,0.00,,CLR,0.40,VWS V14.01,2013-05-21 02:10:00,
2013-05-20 21:15:00,71.7,71.7,28.63,SE,135,2.0,3.0,100,0.00,,CLR,0.40,VWS V14.01,2013-05-21 02:15:00,
2013-05-20 21:20:00,71.6,71.6,28.64,SE,138,1.0,7.0,100,0.00,,CLR,0.40,VWS V14.01,2013-05-21 02:20:00,
2013-05-20 21:25:00,71.4,71.4,28.63,SSE,157,0.0,6.0,100,0.00,,CLR,0.40,VWS V14.01,2013-05-21 02:25:00,
2013-05-20 21:30:00,71.3,71.3,28.63,SE,141,1.0,6.0,100,0.00,,CLR,0.40,VWS V14.01,2013-05-21 02:30:00,
2013-05-20 21:35:00,71.1,71.1,28.63,SE,141,6.0,7.0,100,0.00,,CLR,0.40,VWS V14.01,2013-05-21 02:35:00,
2013-05-20 21:40:00,71.0,71.0,28.63,SE,127,2.0,7.0,100,0.00,,CLR,0.40,VWS V14.01,2013-05-21 02:40:00,
2013-05-20 21:45:00,71.0,71.0,28.63,SE,143,3.0,7.0,100,0.00,,CLR,0.40,VWS V14.01,2013-05-21 02:45:00,
2013-05-20 21:50:00,71.0,71.0,28.62,SE,129,3.0,7.0,100,0.00,,CLR,0.40,VWS V14.01,2013-05-21 02:50:00,
2013-05-20 21:55:00,70.9,70.9,28.62,SSE,151,0.0,7.0,100,0.00,,CLR,0.40,VWS V14.01,2013-05-21 02:55:00,
2013-05-20 22:00:00,70.9,70.9,28.62,SSE,158,3.0,7.0,100,0.00,,CLR,0.40,VWS V14.01,2013-05-21 03:00:00,
2013-05-20 22:05:00,70.8,70.8,28.61,SSE,163,4.0,5.0,100,0.00,,CLR,0.40,VWS V14.01,2013-05-21 03:05:00,
2013-05-20 22:10:00,70.7,70.7,28.61,SSE,157,2.0,5.0,100,0.00,,CLR,0.40,VWS V14.01,2013-05-21 03:10:00,
2013-05-20 22:15:00,70.6,70.6,28.61,SSE,165,0.0,5.0,100,0.00,,CLR,0.40,VWS V14.01,2013-05-21 03:15:00,
2013-05-20 22:20:00,70.6,70.6,28.60,SE,137,2.0,2.0,100,0.00,,CLR,0.40,VWS V14.01,2013-05-21 03:20:00,
2013-05-20 22:25:00,70.5,70.5,28.60,SE,136,0.0,4.0,100,0.00,,CLR,0.40,VWS V14.01,2013-05-21 03:25:00,
2013-05-20 22:30:00,70.4,70.4,28.60,SE,141,2.0,5.0,100,0.00,,CLR,0.40,VWS V14.01,2013-05-21 03:30:00,
2013-05-20 22:35:00,70.3,70.3,28.61,SE,132,1.0,6.0,100,0.00,,CLR,0.40,VWS V14.01,2013-05-21 03:35:00,
2013-05-20 22:40:00,70.3,70.3,28.61,SSE,158,3.0,6.0,100,0.00,,OVC080,0.40,VWS V14.01,2013-05-21 03:40:00,
2013-05-20 22:45:00,70.1,70.1,28.61,South,177,6.0,6.0,100,0.00,,OVC080,0.40,VWS V14.01,2013-05-21 03:45:00,
2013-05-20 22:50:00,69.9,69.9,28.61,SSE,147,0.0,10.0,100,0.00,,OVC080,0.40,VWS V14.01,2013-05-21 03:50:00,
2013-05-20 22:55:00,69.8,69.8,28.60,SSE,156,3.0,9.0,100,0.00,,OVC080,0.40,VWS V14.01,2013-05-21 03:55:00,
2013-05-20 23:00:00,69.7,69.7,28.60,SE,139,6.0,6.0,100,0.00,,OVC080,0.40,VWS V14.01,2013-05-21 04:00:00,
2013-05-20 23:01:00,69.7,69.7,28.60,SE,126,8.0,8.0,100,0.00,,OVC080,0.40,VWS V14.01,2013-05-21 04:01:00,
2013-05-20 23:06:00,69.7,69.7,28.59,South,181,4.0,8.0,100,0.00,,OVC080,0.40,VWS V14.01,2013-05-21 04:06:00,
2013-05-20 23:11:00,69.7,69.7,28.59,South,171,7.0,8.0,100,0.00,,OVC080,0.40,VWS V14.01,2013-05-21 04:11:00,
2013-05-20 23:16:00,69.7,69.7,28.58,SSE,162,2.0,12.0,100,0.00,,OVC080,0.40,VWS V14.01,2013-05-21 04:16:00,
2013-05-20 23:21:00,69.7,69.7,28.58,SSE,157,3.0,11.0,100,0.00,,OVC080,0.40,VWS V14.01,2013-05-21 04:21:00,
2013-05-20 23:26:00,69.7,69.7,28.58,SSE,147,4.0,13.0,100,0.00,,OVC080,0.40,VWS V14.01,2013-05-21 04:26:00,
2013-05-20 23:31:00,69.8,69.8,28.57,South,169,7.0,12.0,100,0.00,,OVC080,0.40,VWS V14.01,2013-05-21 04:31:00,
2013-05-20 23:36:00,69.8,69.8,28.57,SSW,193,8.0,13.0,100,0.00,,CLR,0.40,VWS V14.01,2013-05-21 04:36:00,
2013-05-20 23:41:00,69.8,69.8,28.56,SE,125,2.0,7.0,100,0.00,,CLR,0.40,VWS V14.01,2013-05-21 04:41:00,
2013-05-20 23:46:00,69.8,69.8,28.56,SSE,163,2.0,11.0,100,0.00,,CLR,0.40,VWS V14.01,2013-05-21 04:46:00,
2013-05-20 23:51:00,69.7,69.7,28.56,South,183,6.0,12.0,100,0.00,,CLR,0.40,VWS V14.01,2013-05-21 04:51:00,
2013-05-20 23:56:00,69.6,69.6,28.57,SSE,157,4.0,12.0,100,0.00,,CLR,0.40,VWS V14.01,2013-05-21 04:56:00,